createdAt,value
2022-10-20T00:01:23.875Z,96.12
2022-10-20T00:03:52.119Z,95.69
2022-10-20T00:06:22.037Z,96.38
2022-10-20T00:08:49.678Z,96.47
2022-10-20T00:11:19.071Z,95.92
2022-10-20T00:13:48.046Z,95.36
2022-10-20T00:16:15.978Z,96.44
2022-10-20T00:18:43.342Z,97.01
2022-10-20T00:21:14.289Z,97.33
2022-10-20T00:23:41.619Z,98.12
2022-10-20T00:26:14.339Z,97.59
2022-10-20T00:28:42.335Z,98.44
2022-10-20T00:31:09.668Z,97.21
2022-10-20T00:33:36.957Z,96.66
2022-10-20T00:36:06.591Z,96.43
2022-10-20T00:38:34.886Z,96.12
2022-10-20T00:41:06.139Z,95.51
2022-10-20T00:43:49.994Z,95.48
2022-10-20T00:46:39.794Z,95.05
2022-10-20T00:49:19.836Z,95.24
2022-10-20T00:51:47.288Z,94.52
2022-10-20T00:54:18.080Z,94.94
2022-10-20T00:56:47.205Z,95.26
2022-10-20T00:59:17.634Z,94.58
2022-10-20T01:01:46.297Z,94.94
2022-10-20T01:04:13.661Z,95.51
2022-10-20T01:06:40.971Z,95.27
2022-10-20T01:09:08.595Z,95.32
2022-10-20T01:11:44.948Z,94.56
2022-10-20T01:14:14.987Z,94.65
2022-10-20T01:17:03.362Z,95.48
2022-10-20T01:19:52.018Z,95.20
2022-10-20T01:22:33.945Z,94.66
2022-10-20T01:25:08.007Z,95.21
2022-10-20T01:27:38.672Z,94.92
2022-10-20T01:30:24.338Z,95.58
2022-10-20T01:33:03.619Z,95.03
2022-10-20T01:35:39.778Z,94.83
2022-10-20T01:38:14.178Z,95.14
2022-10-20T01:40:49.649Z,96.05
2022-10-20T01:43:19.670Z,96.18
2022-10-20T01:45:48.646Z,96.89
2022-10-20T01:48:18.808Z,96.78
2022-10-20T01:50:46.100Z,97.86
2022-10-20T01:53:13.411Z,98.17
2022-10-20T01:55:40.819Z,98.69
2022-10-20T01:58:43.433Z,98.28
2022-10-20T02:01:49.887Z,97.52
2022-10-20T02:04:22.458Z,97.43
2022-10-20T02:07:04.255Z,97.06
2022-10-20T02:09:48.698Z,96.83
2022-10-20T02:12:23.587Z,97.19
2022-10-20T02:14:51.450Z,97.60
2022-10-20T02:17:20.082Z,98.54
2022-10-20T02:19:49.391Z,98.40
2022-10-20T02:22:16.949Z,98.87
2022-10-20T02:24:44.754Z,99.86
2022-10-20T02:27:15.639Z,99.48
2022-10-20T02:29:47.947Z,98.94
2022-10-20T02:32:15.564Z,97.97
2022-10-20T02:34:43.159Z,97.35
2022-10-20T02:37:10.894Z,98.57
2022-10-20T02:39:38.112Z,97.37
2022-10-20T02:42:06.310Z,96.17
2022-10-20T02:44:33.960Z,96.95
2022-10-20T02:47:01.178Z,95.92
2022-10-20T02:49:28.376Z,94.73
2022-10-20T02:51:55.745Z,95.68
2022-10-20T02:54:22.930Z,93.65
2022-10-20T02:56:50.301Z,92.99
2022-10-20T02:59:17.554Z,91.04
2022-10-20T03:01:45.105Z,91.79
2022-10-20T03:04:13.118Z,90.59
2022-10-20T03:06:41.183Z,90.59
2022-10-20T03:09:08.501Z,90.14
2022-10-20T03:11:35.946Z,90.53
2022-10-20T03:14:03.351Z,90.09
2022-10-20T03:16:30.571Z,90.29
2022-10-20T03:19:01.551Z,90.06
2022-10-20T03:21:31.876Z,88.00
2022-10-20T03:23:59.040Z,88.37
2022-10-20T03:26:26.367Z,88.98
2022-10-20T03:28:53.619Z,88.80
2022-10-20T03:31:20.828Z,88.54
2022-10-20T03:33:48.064Z,87.48
2022-10-20T03:36:15.258Z,88.04
2022-10-20T03:38:43.239Z,87.77
2022-10-20T03:41:11.216Z,88.91
2022-10-20T03:43:39.404Z,89.22
2022-10-20T03:46:09.224Z,88.65
2022-10-20T03:48:37.011Z,88.09
2022-10-20T03:51:05.152Z,88.50
2022-10-20T03:53:32.346Z,89.15
2022-10-20T03:55:59.524Z,90.17
2022-10-20T03:58:26.880Z,90.49
2022-10-20T04:00:54.502Z,90.22
2022-10-20T04:03:21.882Z,90.41
2022-10-20T04:05:49.214Z,91.73
2022-10-20T04:08:16.609Z,91.31
2022-10-20T04:10:43.846Z,91.46
2022-10-20T04:13:11.061Z,91.49
2022-10-20T04:15:38.280Z,93.56
2022-10-20T04:18:05.486Z,94.44
2022-10-20T04:20:32.723Z,95.54
2022-10-20T04:23:00.031Z,94.75
2022-10-20T04:25:27.249Z,94.97
2022-10-20T04:27:54.534Z,96.03
2022-10-20T04:30:21.711Z,98.53
2022-10-20T04:32:48.988Z,99.23
2022-10-20T04:35:16.276Z,99.19
2022-10-20T04:37:43.447Z,100.00
2022-10-20T04:40:11.144Z,100.00
2022-10-20T04:42:38.349Z,100.00
2022-10-20T04:45:06.121Z,100.00
2022-10-20T04:47:34.022Z,100.00
2022-10-20T04:50:01.501Z,100.00
2022-10-20T04:52:29.613Z,100.00
2022-10-20T04:54:59.366Z,100.00
2022-10-20T04:57:27.241Z,100.00
2022-10-20T04:59:54.501Z,100.00
2022-10-20T05:02:21.802Z,100.00
2022-10-20T05:04:49.006Z,100.00
2022-10-20T05:07:16.742Z,100.00
2022-10-20T05:09:44.071Z,100.00
2022-10-20T05:12:11.475Z,100.00
2022-10-20T05:14:38.742Z,100.00
2022-10-20T05:17:09.208Z,100.00
2022-10-20T05:19:37.383Z,100.00
2022-10-20T05:22:04.592Z,100.00
2022-10-20T05:24:31.785Z,100.00
2022-10-20T05:26:59.023Z,100.00
2022-10-20T05:29:26.315Z,100.00
2022-10-20T05:31:53.524Z,99.59
2022-10-20T05:34:20.785Z,100.00
2022-10-20T05:36:48.025Z,99.87
2022-10-20T05:39:15.286Z,98.96
2022-10-20T05:41:42.509Z,98.60
2022-10-20T05:44:12.628Z,98.01
2022-10-20T05:46:42.722Z,97.79
2022-10-20T05:49:14.191Z,97.65
2022-10-20T05:51:41.755Z,97.88
2022-10-20T05:54:11.818Z,97.46
2022-10-20T05:56:39.307Z,96.53
2022-10-20T05:59:06.526Z,96.14
2022-10-20T06:01:48.322Z,96.43
2022-10-20T06:04:18.036Z,96.14
2022-10-20T06:06:45.405Z,96.15
2022-10-20T06:09:12.781Z,95.53
2022-10-20T06:11:40.427Z,95.78
2022-10-20T06:14:08.589Z,96.25
2022-10-20T06:16:36.243Z,97.91
2022-10-20T06:19:03.925Z,98.37
2022-10-20T06:21:33.398Z,99.76
2022-10-20T06:24:01.637Z,99.49
2022-10-20T06:26:32.726Z,100.00
2022-10-20T06:29:04.368Z,99.95
2022-10-20T06:31:33.852Z,99.35
2022-10-20T06:34:01.647Z,100.00
2022-10-20T06:36:28.999Z,100.00
2022-10-20T06:38:59.280Z,100.00
2022-10-20T06:41:26.816Z,100.00
2022-10-20T06:43:58.516Z,100.00
2022-10-20T06:46:32.881Z,100.00
2022-10-20T06:49:01.382Z,100.00
2022-10-20T06:51:29.038Z,100.00
2022-10-20T06:53:56.315Z,100.00
2022-10-20T06:56:25.752Z,100.00
2022-10-20T06:58:55.568Z,100.00
2022-10-20T07:01:34.019Z,99.75
2022-10-20T07:04:05.118Z,98.58
2022-10-20T07:06:38.202Z,97.98
2022-10-20T07:09:08.465Z,98.23
2022-10-20T07:11:36.045Z,97.34
2022-10-20T07:14:04.177Z,97.02
2022-10-20T07:16:33.593Z,96.64
2022-10-20T07:19:02.080Z,96.33
2022-10-20T07:21:34.630Z,96.57
2022-10-20T07:24:05.862Z,97.03
2022-10-20T07:26:36.135Z,97.03
2022-10-20T07:29:04.288Z,97.34
2022-10-20T07:31:36.712Z,96.44
2022-10-20T07:34:13.419Z,96.25
2022-10-20T07:36:49.257Z,95.74
2022-10-20T07:39:16.825Z,94.90
2022-10-20T07:41:45.617Z,94.45
2022-10-20T07:44:13.247Z,94.43
2022-10-20T07:46:40.457Z,94.17
2022-10-20T07:51:56.944Z,94.07
2022-10-20T07:54:24.251Z,93.33
2022-10-20T07:56:51.646Z,93.65
2022-10-20T07:59:19.175Z,93.31
2022-10-20T08:01:46.731Z,93.20
2022-10-20T08:04:14.119Z,93.27
2022-10-20T08:06:41.413Z,93.57
2022-10-20T08:09:08.679Z,93.42
2022-10-20T08:11:36.040Z,93.54
2022-10-20T08:14:03.994Z,93.62
2022-10-20T08:16:36.957Z,92.46
2022-10-20T08:19:17.958Z,92.72
2022-10-20T08:21:45.175Z,92.93
2022-10-20T08:24:12.410Z,91.68
2022-10-20T08:26:39.631Z,91.24
2022-10-20T08:29:06.845Z,92.18
2022-10-20T08:31:34.005Z,91.39
2022-10-20T08:34:01.220Z,91.80
2022-10-20T08:36:28.504Z,91.28
2022-10-20T08:38:56.543Z,90.92
2022-10-20T08:41:27.044Z,90.36
2022-10-20T08:43:57.621Z,89.65
2022-10-20T08:46:38.454Z,88.95
2022-10-20T08:49:10.839Z,89.43
2022-10-20T08:51:38.576Z,88.50
2022-10-20T08:54:12.394Z,88.35
2022-10-20T08:56:39.824Z,89.03
2022-10-20T08:59:29.225Z,89.30
2022-10-20T09:01:57.731Z,89.59
2022-10-20T09:04:38.106Z,89.06
2022-10-20T09:07:13.676Z,89.93
2022-10-20T09:09:41.362Z,89.11
2022-10-20T09:12:12.479Z,88.60
2022-10-20T09:14:39.651Z,88.98
2022-10-20T09:17:14.349Z,89.42
2022-10-20T09:19:46.952Z,88.22
2022-10-20T09:22:14.860Z,88.68
2022-10-20T09:24:42.934Z,88.77
2022-10-20T09:27:29.981Z,88.04
2022-10-20T09:29:57.236Z,88.66
2022-10-20T09:32:47.567Z,87.66
2022-10-20T09:35:15.234Z,86.90
2022-10-20T09:37:44.517Z,86.35
2022-10-20T09:40:16.050Z,85.47
2022-10-20T09:42:52.765Z,84.82
2022-10-20T09:45:31.729Z,85.32
2022-10-20T09:48:03.649Z,85.12
2022-10-20T09:50:39.824Z,84.77
2022-10-20T09:53:18.150Z,85.12
2022-10-20T09:55:47.550Z,84.13
2022-10-20T09:58:21.300Z,84.70
2022-10-20T10:00:57.313Z,82.88
2022-10-20T10:03:25.096Z,82.35
2022-10-20T10:05:59.910Z,81.87
2022-10-20T10:08:44.190Z,81.71
2022-10-20T10:11:17.240Z,81.16
2022-10-20T10:13:51.857Z,80.65
2022-10-20T10:16:21.362Z,80.04
2022-10-20T10:19:02.492Z,78.96
2022-10-20T10:21:30.690Z,79.20
2022-10-20T10:24:02.005Z,78.65
2022-10-20T10:26:42.861Z,78.08
2022-10-20T10:29:27.770Z,78.26
2022-10-20T10:32:00.870Z,76.86
2022-10-20T10:34:56.065Z,75.72
2022-10-20T10:37:23.270Z,74.82
2022-10-20T10:39:50.497Z,73.77
2022-10-20T10:42:31.464Z,71.86
2022-10-20T10:45:31.088Z,72.08
2022-10-20T10:48:16.317Z,73.16
2022-10-20T10:51:00.665Z,71.95
2022-10-20T10:54:18.712Z,70.65
2022-10-20T10:56:57.347Z,72.26
2022-10-20T10:59:35.133Z,72.32
2022-10-20T11:02:33.634Z,71.90
2022-10-20T11:07:54.542Z,70.00
2022-10-20T11:10:33.286Z,68.90
2022-10-20T11:13:11.629Z,69.95
2022-10-20T11:16:05.758Z,68.81
2022-10-20T11:18:54.851Z,69.33
2022-10-20T11:21:40.865Z,69.38
2022-10-20T11:24:29.664Z,68.67
2022-10-20T11:27:02.177Z,68.00
2022-10-20T11:29:49.872Z,68.40
2022-10-20T11:32:20.473Z,67.95
2022-10-20T11:35:07.777Z,68.03
2022-10-20T11:37:44.141Z,67.19
2022-10-20T11:40:11.465Z,66.93
2022-10-20T11:43:16.456Z,66.64
2022-10-20T11:46:25.306Z,66.87
2022-10-20T11:48:54.642Z,66.79
2022-10-20T11:51:30.917Z,66.68
2022-10-20T11:54:24.706Z,67.19
2022-10-20T11:57:25.501Z,67.20
2022-10-20T12:03:30.124Z,67.35
2022-10-20T12:06:09.202Z,67.65
2022-10-20T12:08:45.577Z,67.25
2022-10-20T12:11:15.936Z,66.86
2022-10-20T12:13:58.640Z,67.51
2022-10-20T12:17:07.944Z,67.99
2022-10-20T12:19:35.715Z,68.25
2022-10-20T12:22:07.094Z,67.75
2022-10-20T12:24:38.274Z,68.20
2022-10-20T12:27:08.429Z,68.58
2022-10-20T12:29:35.615Z,69.17
2022-10-20T12:32:21.358Z,68.35
2022-10-20T12:34:50.620Z,68.28
2022-10-20T12:37:28.036Z,67.63
2022-10-20T12:40:19.614Z,67.58
2022-10-20T12:42:49.076Z,66.58
2022-10-20T12:45:19.155Z,67.06
2022-10-20T12:47:47.691Z,67.35
2022-10-20T12:50:37.010Z,66.53
2022-10-20T12:53:13.183Z,65.63
2022-10-20T12:55:42.133Z,65.01
2022-10-20T12:58:19.116Z,64.16
2022-10-20T13:00:46.432Z,64.59
2022-10-20T13:03:44.051Z,65.32
2022-10-20T13:06:23.639Z,64.31
2022-10-20T13:09:03.446Z,63.48
2022-10-20T13:11:42.652Z,62.23
2022-10-20T13:14:12.695Z,62.94
2022-10-20T13:17:06.200Z,62.14
2022-10-20T13:20:04.256Z,63.00
2022-10-20T13:22:43.221Z,63.17
2022-10-20T13:25:18.599Z,62.67
2022-10-20T13:27:48.518Z,62.44
2022-10-20T13:30:20.833Z,62.25
2022-10-20T13:33:28.765Z,61.54
2022-10-20T13:36:10.378Z,62.05
2022-10-20T13:39:03.905Z,62.11
2022-10-20T13:41:45.838Z,62.03
2022-10-20T13:44:31.842Z,63.99
2022-10-20T13:47:08.261Z,61.24
2022-10-20T13:50:05.794Z,60.90
2022-10-20T13:52:41.116Z,61.71
2022-10-20T13:55:16.095Z,61.71
2022-10-20T13:57:55.122Z,60.95
2022-10-20T14:00:26.330Z,61.32
2022-10-20T14:02:56.480Z,61.44
2022-10-20T14:05:24.462Z,61.10
2022-10-20T14:07:52.184Z,60.63
2022-10-20T14:10:53.114Z,61.38
2022-10-20T14:13:23.577Z,61.09
2022-10-20T14:15:57.037Z,60.44
2022-10-20T14:18:35.365Z,62.48
2022-10-20T14:21:05.590Z,64.08
2022-10-20T14:23:38.193Z,62.15
2022-10-20T14:26:11.219Z,61.76
2022-10-20T14:28:39.261Z,60.80
2022-10-20T14:31:06.951Z,61.27
2022-10-20T14:33:36.934Z,61.49
2022-10-20T14:36:05.310Z,60.86
2022-10-20T14:38:37.950Z,61.38
2022-10-20T14:41:07.253Z,60.44
2022-10-20T14:43:43.340Z,60.27
2022-10-20T14:46:12.607Z,59.99
2022-10-20T14:48:48.242Z,61.32
2022-10-20T14:51:44.986Z,61.56
2022-10-20T14:54:20.491Z,61.63
2022-10-20T14:56:56.036Z,60.58
2022-10-20T14:59:26.976Z,61.33
2022-10-20T15:02:08.343Z,61.40
2022-10-20T15:04:37.459Z,61.80
2022-10-20T15:07:17.335Z,61.15
2022-10-20T15:09:50.798Z,61.28
2022-10-20T15:12:20.267Z,61.56
2022-10-20T15:14:50.263Z,61.88
2022-10-20T15:17:37.679Z,62.90
2022-10-20T15:20:30.465Z,61.99
2022-10-20T15:23:05.978Z,62.05
2022-10-20T15:25:45.017Z,64.19
2022-10-20T15:28:38.212Z,64.73
2022-10-20T15:31:08.587Z,65.41
2022-10-20T15:33:35.799Z,64.57
2022-10-20T15:36:03.258Z,65.35
2022-10-20T15:38:31.141Z,65.30
2022-10-20T15:43:33.079Z,64.46
2022-10-20T15:46:00.434Z,63.55
2022-10-20T15:48:28.505Z,64.06
2022-10-20T15:50:57.013Z,63.97
2022-10-20T15:53:24.463Z,63.80
2022-10-20T15:55:51.932Z,64.21
2022-10-20T15:58:19.272Z,64.08
2022-10-20T16:00:46.569Z,64.38
2022-10-20T16:03:18.220Z,64.38
2022-10-20T16:05:46.804Z,64.94
2022-10-20T16:10:43.571Z,66.00
2022-10-20T16:13:12.007Z,67.33
2022-10-20T16:15:39.331Z,68.33
2022-10-20T16:18:09.594Z,68.76
2022-10-20T16:20:40.122Z,68.95
2022-10-20T16:23:07.574Z,69.18
2022-10-20T16:25:35.091Z,69.06
2022-10-20T16:28:02.619Z,68.67
2022-10-20T16:30:29.797Z,68.55
2022-10-20T16:32:57.127Z,68.99
2022-10-20T16:35:24.429Z,68.46
2022-10-20T16:37:51.707Z,68.69
2022-10-20T16:40:19.751Z,69.27
2022-10-20T16:42:47.053Z,68.89
2022-10-20T16:45:14.437Z,69.43
2022-10-20T16:47:41.745Z,71.46
2022-10-20T16:50:09.159Z,71.66
2022-10-20T16:52:36.321Z,72.85
2022-10-20T16:55:03.898Z,74.04
2022-10-20T16:57:38.118Z,73.74
2022-10-20T17:00:08.116Z,74.43
2022-10-20T17:02:36.335Z,74.14
2022-10-20T17:05:08.217Z,74.22
2022-10-20T17:07:37.138Z,73.67
2022-10-20T17:10:04.961Z,74.99
2022-10-20T17:12:32.149Z,73.87
2022-10-20T17:14:59.369Z,74.49
2022-10-20T17:17:27.327Z,76.46
2022-10-20T17:19:54.696Z,77.21
2022-10-20T17:22:21.931Z,77.66
2022-10-20T17:24:49.136Z,78.23
2022-10-20T17:27:19.994Z,78.42
2022-10-20T17:29:51.695Z,78.97
2022-10-20T17:32:18.984Z,79.04
2022-10-20T17:34:46.158Z,79.25
2022-10-20T17:37:13.474Z,79.53
2022-10-20T17:39:40.923Z,79.34
2022-10-20T17:42:08.132Z,79.30
2022-10-20T17:44:35.421Z,79.50
2022-10-20T17:47:04.388Z,80.98
2022-10-20T17:49:31.902Z,81.57
2022-10-20T17:51:59.227Z,81.05
2022-10-20T17:54:26.523Z,80.82
2022-10-20T17:56:53.765Z,80.64
2022-10-20T17:59:20.997Z,82.12
2022-10-20T18:01:48.316Z,82.25
2022-10-20T18:04:16.884Z,82.40
2022-10-20T18:06:44.892Z,82.39
2022-10-20T18:09:15.056Z,83.14
2022-10-20T18:11:47.758Z,82.34
2022-10-20T18:14:16.992Z,82.89
2022-10-20T18:16:44.222Z,83.46
2022-10-20T18:19:18.791Z,83.21
2022-10-20T18:21:46.520Z,84.00
2022-10-20T18:24:15.406Z,83.69
2022-10-20T18:26:43.533Z,84.00
2022-10-20T18:29:11.351Z,84.45
2022-10-20T18:31:40.742Z,84.13
2022-10-20T18:34:09.833Z,84.00
2022-10-20T18:36:40.680Z,83.05
2022-10-20T18:39:11.112Z,83.43
2022-10-20T18:41:40.103Z,83.83
2022-10-20T18:44:11.507Z,83.99
2022-10-20T18:46:39.570Z,83.85
2022-10-20T18:49:07.995Z,84.67
2022-10-20T18:51:36.163Z,85.31
2022-10-20T18:54:04.954Z,86.67
2022-10-20T18:56:32.352Z,87.90
2022-10-20T18:59:05.723Z,87.21
2022-10-20T19:01:35.287Z,88.34
2022-10-20T19:04:03.838Z,88.02
2022-10-20T19:06:42.218Z,88.33
2022-10-20T19:09:15.142Z,87.42
2022-10-20T19:11:42.717Z,88.53
2022-10-20T19:14:10.312Z,88.11
2022-10-20T19:16:38.491Z,88.31
2022-10-20T19:19:08.952Z,87.83
2022-10-20T19:21:37.005Z,87.20
2022-10-20T19:24:10.041Z,88.54
2022-10-20T19:26:56.858Z,89.40
2022-10-20T19:29:30.210Z,89.10
2022-10-20T19:31:59.550Z,89.25
2022-10-20T19:34:38.592Z,89.34
2022-10-20T19:37:07.072Z,91.13
2022-10-20T19:39:37.772Z,91.19
2022-10-20T19:42:06.991Z,91.35
2022-10-20T19:44:34.420Z,90.95
2022-10-20T19:47:01.776Z,92.15
2022-10-20T19:49:29.105Z,92.39
2022-10-20T19:51:56.719Z,92.63
2022-10-20T19:54:24.009Z,93.18
2022-10-20T19:56:51.219Z,95.19
2022-10-20T19:59:18.491Z,96.02
2022-10-20T20:01:45.936Z,97.37
2022-10-20T20:04:13.235Z,95.43
2022-10-20T20:06:40.952Z,93.99
2022-10-20T20:09:09.962Z,91.53
2022-10-20T20:11:38.298Z,92.29
2022-10-20T20:14:07.225Z,94.67
2022-10-20T20:16:35.083Z,94.06
2022-10-20T20:19:02.396Z,93.16
2022-10-20T20:21:29.830Z,94.20
2022-10-20T20:24:00.851Z,92.39
2022-10-20T20:26:30.237Z,93.88
2022-10-20T20:29:00.620Z,95.16
2022-10-20T20:31:28.158Z,95.79
2022-10-20T20:33:57.217Z,97.41
2022-10-20T20:36:28.116Z,94.51
2022-10-20T20:38:57.647Z,93.88
2022-10-20T20:41:35.073Z,93.51
2022-10-20T20:44:07.674Z,91.94
2022-10-20T20:46:36.395Z,91.84
2022-10-20T20:49:04.304Z,91.85
2022-10-20T20:51:34.017Z,95.69
2022-10-20T20:54:02.805Z,94.73
2022-10-20T20:56:30.487Z,94.52
2022-10-20T20:58:57.742Z,94.67
2022-10-20T21:01:31.726Z,94.45
2022-10-20T21:04:01.769Z,94.82
2022-10-20T21:06:34.021Z,94.29
2022-10-20T21:09:08.187Z,95.31
2022-10-20T21:11:36.017Z,96.00
2022-10-20T21:14:03.668Z,94.90
2022-10-20T21:16:33.415Z,93.45
2022-10-20T21:19:03.459Z,94.94
2022-10-20T21:21:33.370Z,94.41
2022-10-20T21:24:01.699Z,95.97
2022-10-20T21:26:30.129Z,93.01
2022-10-20T21:28:57.734Z,95.02
2022-10-20T21:31:26.680Z,94.43
2022-10-20T21:33:56.569Z,96.19
2022-10-20T21:36:24.714Z,96.03
2022-10-20T21:38:52.479Z,96.59
2022-10-20T21:41:23.715Z,97.41
2022-10-20T21:43:55.890Z,97.11
2022-10-20T21:46:25.993Z,98.15
2022-10-20T21:48:54.757Z,97.92
2022-10-20T21:51:24.663Z,98.12
2022-10-20T21:53:59.309Z,100.00
2022-10-20T21:56:26.703Z,100.00
2022-10-20T21:58:54.218Z,100.00
2022-10-20T22:01:24.033Z,100.00
2022-10-20T22:03:53.071Z,100.00
2022-10-20T22:06:22.948Z,100.00
2022-10-20T22:08:52.228Z,100.00
2022-10-20T22:11:31.682Z,100.00
2022-10-20T22:13:59.482Z,100.00
2022-10-20T22:16:29.433Z,100.00
2022-10-20T22:19:06.086Z,100.00
2022-10-20T22:21:36.659Z,100.00
2022-10-20T22:24:05.097Z,100.00
2022-10-20T22:26:32.870Z,100.00
2022-10-20T22:29:00.568Z,97.70
2022-10-20T22:31:28.249Z,99.51
2022-10-20T22:33:57.033Z,100.00
2022-10-20T22:36:24.916Z,100.00
2022-10-20T22:38:52.420Z,100.00
2022-10-20T22:41:19.780Z,99.98
2022-10-20T22:43:47.384Z,100.00
2022-10-20T22:46:15.906Z,100.00
2022-10-20T22:48:43.736Z,98.05
2022-10-20T22:51:10.975Z,99.22
2022-10-20T22:53:38.620Z,100.00
2022-10-20T22:56:10.014Z,97.43
2022-10-20T22:58:37.696Z,97.31
2022-10-20T23:01:10.351Z,97.07
2022-10-20T23:03:37.955Z,96.77
2022-10-20T23:06:17.839Z,100.00
2022-10-20T23:08:47.322Z,99.35
2022-10-20T23:11:15.108Z,98.73
2022-10-20T23:13:42.610Z,97.56
2022-10-20T23:16:10.240Z,99.35
2022-10-20T23:18:37.723Z,98.57
2022-10-20T23:21:05.684Z,99.21
2022-10-20T23:23:35.939Z,100.00
2022-10-20T23:26:04.698Z,100.00
2022-10-20T23:28:32.786Z,100.00
2022-10-20T23:31:15.056Z,100.00
2022-10-20T23:33:43.657Z,100.00
2022-10-20T23:36:12.406Z,98.74
2022-10-20T23:38:41.633Z,99.67
2022-10-20T23:41:09.770Z,99.83
2022-10-20T23:43:37.261Z,98.67
2022-10-20T23:46:04.790Z,99.14
2022-10-20T23:48:32.472Z,98.19
2022-10-20T23:50:59.757Z,98.00
2022-10-20T23:53:27.060Z,97.57
2022-10-20T23:55:54.371Z,97.70
2022-10-20T23:58:22.697Z,97.38
